createdAt,value
2023-02-17T00:00:11.360Z,7.07
2023-02-17T00:02:58.805Z,7.08
2023-02-17T00:05:26.277Z,7.11
2023-02-17T00:07:53.403Z,7.10
2023-02-17T00:10:20.176Z,7.06
2023-02-17T00:12:47.253Z,7.06
2023-02-17T00:15:13.980Z,7.04
2023-02-17T00:17:41.051Z,7.09
2023-02-17T00:20:09.284Z,7.05
2023-02-17T00:22:36.381Z,7.03
2023-02-17T00:25:03.143Z,7.04
2023-02-17T00:27:30.226Z,7.04
2023-02-17T00:29:56.997Z,7.09
2023-02-17T00:32:24.094Z,7.06
2023-02-17T00:34:52.631Z,7.03
2023-02-17T00:37:19.647Z,7.02
2023-02-17T00:39:46.409Z,7.01
2023-02-17T00:42:13.480Z,7.01
2023-02-17T00:44:40.242Z,6.96
2023-02-17T00:47:07.328Z,6.97
2023-02-17T00:49:34.106Z,6.97
2023-02-17T00:52:01.882Z,7.00
2023-02-17T00:54:29.290Z,6.99
2023-02-17T00:56:56.465Z,6.93
2023-02-17T00:59:23.217Z,6.93
2023-02-17T01:01:50.343Z,6.98
2023-02-17T01:04:17.147Z,6.94
2023-02-17T01:06:44.264Z,6.98
2023-02-17T01:09:13.524Z,6.92
2023-02-17T01:11:40.920Z,6.90
2023-02-17T01:14:07.906Z,6.91
2023-02-17T01:16:38.692Z,6.91
2023-02-17T01:19:09.043Z,6.88
2023-02-17T01:21:36.132Z,6.90
2023-02-17T01:24:04.666Z,6.90
2023-02-17T01:26:32.446Z,6.86
2023-02-17T01:28:59.217Z,6.87
2023-02-17T01:31:27.266Z,6.82
2023-02-17T01:33:56.087Z,6.83
2023-02-17T01:36:23.137Z,6.86
2023-02-17T01:38:50.034Z,6.86
2023-02-17T01:41:17.919Z,6.83
2023-02-17T01:44:30.082Z,6.83
2023-02-17T01:46:57.239Z,6.85
2023-02-17T01:49:26.934Z,6.81
2023-02-17T01:52:21.235Z,6.81
2023-02-17T01:54:53.823Z,6.80
2023-02-17T01:57:23.236Z,6.81
2023-02-17T01:59:50.554Z,6.76
2023-02-17T02:02:17.883Z,6.76
2023-02-17T02:04:46.037Z,6.79
2023-02-17T02:07:21.579Z,6.74
2023-02-17T02:09:53.154Z,6.74
2023-02-17T02:12:28.452Z,6.75
2023-02-17T02:14:57.424Z,6.72
2023-02-17T02:17:50.602Z,6.73
2023-02-17T02:20:41.658Z,6.73
2023-02-17T02:23:46.315Z,6.70
2023-02-17T02:26:31.143Z,6.66
2023-02-17T02:29:19.638Z,6.63
2023-02-17T02:32:34.813Z,6.72
2023-02-17T02:35:15.542Z,6.71
2023-02-17T02:38:07.217Z,6.73
2023-02-17T02:40:36.778Z,6.68
2023-02-17T02:43:03.692Z,6.64
2023-02-17T02:45:30.863Z,6.61
2023-02-17T02:47:57.817Z,6.62
2023-02-17T02:50:50.576Z,6.67
2023-02-17T02:53:36.405Z,6.68
2023-02-17T02:56:27.096Z,6.61
2023-02-17T02:59:31.739Z,6.64
2023-02-17T03:02:11.250Z,6.67
2023-02-17T03:04:38.972Z,6.71
2023-02-17T03:07:21.191Z,6.69
2023-02-17T03:09:51.745Z,6.70
2023-02-17T03:12:19.490Z,6.64
2023-02-17T03:14:47.911Z,6.68
2023-02-17T03:17:14.948Z,6.71
2023-02-17T03:19:41.741Z,6.69
2023-02-17T03:22:14.266Z,6.65
2023-02-17T03:24:41.073Z,6.65
2023-02-17T03:27:08.126Z,6.70
2023-02-17T03:29:34.888Z,6.68
2023-02-17T03:32:01.985Z,6.73
2023-02-17T03:34:28.755Z,6.65
2023-02-17T03:36:55.905Z,6.65
2023-02-17T03:39:22.685Z,6.65
2023-02-17T03:41:51.697Z,6.68
2023-02-17T03:44:18.811Z,6.70
2023-02-17T03:46:46.393Z,6.70
2023-02-17T03:49:13.234Z,6.74
2023-02-17T03:51:40.342Z,6.75
2023-02-17T03:54:07.118Z,6.76
2023-02-17T03:56:34.159Z,6.74
2023-02-17T03:59:00.957Z,6.71
2023-02-17T04:01:28.018Z,6.69
2023-02-17T04:03:54.931Z,6.68
2023-02-17T04:06:22.141Z,6.72
2023-02-17T04:08:48.930Z,6.77
2023-02-17T04:11:16.107Z,6.74
2023-02-17T04:13:42.884Z,6.72
2023-02-17T04:16:10.267Z,6.78
2023-02-17T04:18:37.497Z,6.76
2023-02-17T04:21:05.143Z,6.73
2023-02-17T04:23:31.952Z,6.73
2023-02-17T04:25:59.004Z,6.73
2023-02-17T04:28:26.387Z,6.77
2023-02-17T04:30:53.595Z,6.79
2023-02-17T04:33:20.397Z,6.76
2023-02-17T04:35:47.546Z,6.81
2023-02-17T04:38:14.337Z,6.80
2023-02-17T04:40:41.550Z,6.80
2023-02-17T04:43:08.592Z,6.77
2023-02-17T04:45:36.721Z,6.81
2023-02-17T04:48:03.703Z,6.81
2023-02-17T04:50:30.824Z,6.78
2023-02-17T04:52:57.569Z,6.80
2023-02-17T04:55:24.646Z,6.80
2023-02-17T04:57:51.369Z,6.85
2023-02-17T05:00:18.724Z,6.84
2023-02-17T05:02:45.461Z,6.82
2023-02-17T05:05:15.324Z,6.85
2023-02-17T05:07:42.901Z,6.86
2023-02-17T05:10:10.221Z,6.87
2023-02-17T05:12:36.981Z,6.86
2023-02-17T05:15:04.440Z,6.83
2023-02-17T05:17:31.264Z,6.87
2023-02-17T05:19:58.587Z,6.88
2023-02-17T05:22:25.518Z,6.89
2023-02-17T05:24:52.788Z,6.89
2023-02-17T05:27:19.564Z,6.96
2023-02-17T05:29:46.714Z,6.90
2023-02-17T05:32:13.478Z,6.93
2023-02-17T05:34:40.611Z,6.96
2023-02-17T05:37:07.346Z,6.99
2023-02-17T05:39:34.420Z,7.00
2023-02-17T05:42:01.189Z,6.98
2023-02-17T05:44:28.319Z,7.00
2023-02-17T05:46:55.066Z,6.96
2023-02-17T05:49:22.192Z,7.00
2023-02-17T05:51:48.949Z,7.04
2023-02-17T05:54:15.981Z,7.04
2023-02-17T05:56:42.763Z,7.01
2023-02-17T05:59:09.955Z,7.02
2023-02-17T06:01:37.706Z,7.06
2023-02-17T06:04:04.914Z,7.10
2023-02-17T06:06:31.685Z,7.06
2023-02-17T06:08:58.824Z,7.08
2023-02-17T06:11:25.717Z,7.06
2023-02-17T06:13:52.754Z,7.06
2023-02-17T06:16:20.066Z,7.11
2023-02-17T06:18:47.174Z,7.13
2023-02-17T06:21:13.998Z,7.11
2023-02-17T06:23:41.032Z,7.10
2023-02-17T06:26:08.250Z,7.17
2023-02-17T06:28:35.345Z,7.18
2023-02-17T06:31:02.229Z,7.18
2023-02-17T06:33:29.387Z,7.19
2023-02-17T06:35:56.399Z,7.22
2023-02-17T06:38:23.576Z,7.20
2023-02-17T06:40:50.320Z,7.23
2023-02-17T06:43:17.387Z,7.22
2023-02-17T06:45:44.241Z,7.28
2023-02-17T06:48:11.373Z,7.22
2023-02-17T06:50:38.285Z,7.26
2023-02-17T06:53:05.489Z,7.27
2023-02-17T06:55:32.313Z,7.31
2023-02-17T06:57:59.402Z,7.31
2023-02-17T07:00:27.123Z,7.35
2023-02-17T07:02:54.406Z,7.35
2023-02-17T07:05:21.356Z,7.34
2023-02-17T07:07:48.386Z,7.35
2023-02-17T07:10:15.176Z,7.39
2023-02-17T07:12:42.211Z,7.38
2023-02-17T07:15:12.012Z,7.46
2023-02-17T07:17:39.583Z,7.46
2023-02-17T07:20:07.158Z,7.43
2023-02-17T07:22:34.216Z,7.56
2023-02-17T07:25:01.031Z,7.50
2023-02-17T07:27:28.198Z,7.49
2023-02-17T07:29:55.602Z,7.53
2023-02-17T07:32:22.849Z,7.58
2023-02-17T07:34:49.621Z,7.56
2023-02-17T07:37:16.740Z,7.70
2023-02-17T07:39:43.619Z,7.62
2023-02-17T07:42:11.486Z,7.70
2023-02-17T07:44:38.221Z,7.68
2023-02-17T07:47:05.302Z,7.77
2023-02-17T07:49:32.129Z,7.73
2023-02-17T07:51:59.209Z,7.82
2023-02-17T07:54:26.075Z,7.77
2023-02-17T07:56:53.187Z,7.89
2023-02-17T07:59:19.971Z,7.92
2023-02-17T08:01:47.179Z,7.96
2023-02-17T08:04:13.973Z,7.96
2023-02-17T08:06:41.094Z,7.89
2023-02-17T08:09:28.422Z,7.94
2023-02-17T08:12:13.962Z,7.98
2023-02-17T08:14:40.860Z,8.04
2023-02-17T08:17:08.025Z,8.05
2023-02-17T08:19:47.426Z,8.12
2023-02-17T08:22:16.099Z,8.07
2023-02-17T08:24:42.994Z,8.16
2023-02-17T08:27:10.115Z,8.14
2023-02-17T08:29:36.919Z,8.16
2023-02-17T08:32:04.198Z,8.16
2023-02-17T08:34:33.912Z,8.21
2023-02-17T08:37:01.686Z,8.18
2023-02-17T08:39:28.701Z,8.17
2023-02-17T08:41:55.906Z,8.14
2023-02-17T08:44:22.898Z,8.15
2023-02-17T08:46:50.580Z,8.16
2023-02-17T08:49:18.911Z,8.22
2023-02-17T08:51:46.104Z,8.23
2023-02-17T08:54:12.937Z,8.21
2023-02-17T08:56:40.296Z,8.21
2023-02-17T08:59:07.747Z,8.31
2023-02-17T09:01:35.492Z,8.31
2023-02-17T09:04:02.891Z,8.36
2023-02-17T09:06:50.125Z,8.34
2023-02-17T09:09:18.020Z,8.38
2023-02-17T09:11:45.366Z,8.36
2023-02-17T09:14:12.358Z,8.38
2023-02-17T09:16:41.417Z,8.43
2023-02-17T09:19:08.445Z,8.46
2023-02-17T09:21:35.529Z,8.47
2023-02-17T09:24:02.293Z,8.48
2023-02-17T09:26:29.684Z,8.46
2023-02-17T09:28:57.956Z,8.46
2023-02-17T09:31:26.157Z,8.42
2023-02-17T09:33:53.152Z,8.48
2023-02-17T09:36:28.415Z,8.45
2023-02-17T09:38:55.337Z,8.49
2023-02-17T09:41:42.369Z,8.48
2023-02-17T09:44:39.429Z,8.48
2023-02-17T09:47:16.370Z,8.48
2023-02-17T09:49:45.702Z,8.41
2023-02-17T09:52:31.676Z,8.54
2023-02-17T09:55:06.815Z,8.58
2023-02-17T09:57:40.461Z,8.60
2023-02-17T10:00:08.863Z,8.62
2023-02-17T10:02:39.429Z,8.66
2023-02-17T10:05:07.883Z,8.63
2023-02-17T10:07:47.344Z,8.61
2023-02-17T10:10:35.697Z,8.65
2023-02-17T10:13:02.963Z,8.65
2023-02-17T10:15:32.182Z,8.64
2023-02-17T10:18:11.803Z,8.67
2023-02-17T10:20:42.922Z,8.69
2023-02-17T10:23:19.344Z,8.74
2023-02-17T10:26:01.468Z,8.75
2023-02-17T10:28:56.328Z,8.72
2023-02-17T10:31:37.871Z,8.73
2023-02-17T10:34:38.091Z,8.79
2023-02-17T10:37:13.145Z,8.72
2023-02-17T10:39:48.726Z,8.79
2023-02-17T10:42:28.663Z,8.83
2023-02-17T10:45:00.885Z,8.90
2023-02-17T10:47:27.690Z,8.90
2023-02-17T10:49:55.224Z,8.90
2023-02-17T10:52:24.505Z,8.87
2023-02-17T10:54:59.930Z,8.90
2023-02-17T10:57:30.184Z,8.95
2023-02-17T10:59:57.284Z,8.91
2023-02-17T11:02:41.329Z,8.94
2023-02-17T11:05:09.157Z,9.01
2023-02-17T11:07:37.311Z,8.98
2023-02-17T11:10:37.563Z,9.01
2023-02-17T11:13:05.082Z,9.04
2023-02-17T11:15:43.179Z,9.07
2023-02-17T11:18:11.843Z,9.08
2023-02-17T11:20:39.066Z,9.08
2023-02-17T11:23:16.601Z,9.06
2023-02-17T11:25:43.798Z,9.12
2023-02-17T11:28:14.755Z,9.20
2023-02-17T11:30:53.012Z,9.15
2023-02-17T11:33:22.702Z,9.20
2023-02-17T11:35:55.852Z,9.19
2023-02-17T11:38:28.132Z,9.23
2023-02-17T11:41:00.297Z,9.33
2023-02-17T11:43:31.285Z,9.24
2023-02-17T11:46:01.144Z,9.23
2023-02-17T11:48:28.446Z,9.23
2023-02-17T11:51:15.016Z,9.22
2023-02-17T11:54:17.176Z,9.24
2023-02-17T11:57:07.418Z,9.34
2023-02-17T11:59:45.283Z,9.34
2023-02-17T12:02:38.262Z,9.39
2023-02-17T12:05:20.517Z,9.33
2023-02-17T12:08:23.977Z,9.34
2023-02-17T12:11:09.752Z,9.35
2023-02-17T12:13:51.752Z,9.38
2023-02-17T12:16:21.770Z,9.45
2023-02-17T12:19:03.776Z,9.45
2023-02-17T12:21:37.075Z,9.43
2023-02-17T12:24:22.073Z,9.43
2023-02-17T12:27:28.072Z,9.42
2023-02-17T12:30:31.147Z,9.50
2023-02-17T12:33:32.186Z,9.54
2023-02-17T12:36:02.474Z,9.50
2023-02-17T12:38:34.846Z,9.52
2023-02-17T12:41:17.835Z,9.55
2023-02-17T12:44:00.153Z,9.60
2023-02-17T12:46:41.407Z,9.60
2023-02-17T12:49:20.629Z,9.62
2023-02-17T12:51:56.643Z,9.64
2023-02-17T12:54:27.084Z,9.71
2023-02-17T12:57:10.578Z,9.71
2023-02-17T12:59:41.929Z,9.79
2023-02-17T13:02:14.033Z,9.80
2023-02-17T13:04:42.866Z,9.78
2023-02-17T13:07:21.428Z,9.80
2023-02-17T13:09:49.166Z,9.80
2023-02-17T13:12:17.445Z,9.87
2023-02-17T13:14:58.616Z,9.86
2023-02-17T13:17:25.399Z,9.91
2023-02-17T13:20:04.616Z,9.97
2023-02-17T13:22:31.436Z,10.03
2023-02-17T13:24:58.495Z,10.09
2023-02-17T13:27:28.307Z,9.90
2023-02-17T13:30:02.789Z,9.91
2023-02-17T13:32:31.247Z,9.94
2023-02-17T13:35:08.386Z,10.02
2023-02-17T13:37:35.173Z,10.06
2023-02-17T13:40:24.227Z,10.02
2023-02-17T13:42:52.086Z,10.03
2023-02-17T13:45:37.971Z,10.10
2023-02-17T13:48:19.680Z,10.16
2023-02-17T13:50:48.405Z,10.08
2023-02-17T13:53:24.365Z,10.13
2023-02-17T13:55:51.939Z,10.03
2023-02-17T13:58:23.433Z,10.10
2023-02-17T14:00:50.585Z,10.05
2023-02-17T14:03:31.183Z,10.12
2023-02-17T14:05:59.099Z,10.15
2023-02-17T14:08:42.528Z,10.02
2023-02-17T14:11:10.555Z,10.03
2023-02-17T14:13:38.532Z,10.05
2023-02-17T14:16:07.345Z,10.07
2023-02-17T14:18:36.555Z,10.12
2023-02-17T14:21:11.723Z,10.14
2023-02-17T14:23:46.362Z,10.19
2023-02-17T14:26:35.151Z,10.16
2023-02-17T14:29:06.491Z,10.10
2023-02-17T14:31:49.972Z,10.08
2023-02-17T14:34:28.461Z,10.20
2023-02-17T14:36:55.812Z,10.24
2023-02-17T14:39:22.599Z,10.14
2023-02-17T14:41:49.634Z,10.11
2023-02-17T14:44:16.646Z,10.18
2023-02-17T14:46:43.817Z,10.14
2023-02-17T14:49:10.656Z,10.20
2023-02-17T14:51:37.969Z,10.24
2023-02-17T14:54:15.824Z,10.17
2023-02-17T14:57:03.995Z,10.11
2023-02-17T14:59:31.532Z,10.14
2023-02-17T15:01:58.632Z,10.23
2023-02-17T15:04:25.541Z,10.13
2023-02-17T15:06:54.697Z,10.17
2023-02-17T15:09:28.102Z,10.16
2023-02-17T15:11:55.989Z,10.15
2023-02-17T15:14:22.835Z,10.21
2023-02-17T15:16:50.163Z,10.25
2023-02-17T15:19:19.560Z,10.29
2023-02-17T15:21:50.965Z,10.27
2023-02-17T15:24:23.219Z,10.25
2023-02-17T15:26:50.327Z,10.31
2023-02-17T15:29:18.664Z,10.24
2023-02-17T15:31:46.414Z,10.27
2023-02-17T15:34:17.577Z,10.28
2023-02-17T15:36:44.900Z,10.24
2023-02-17T15:39:15.588Z,10.19
2023-02-17T15:41:43.515Z,10.26
2023-02-17T15:44:27.474Z,10.28
2023-02-17T15:46:55.276Z,10.17
2023-02-17T15:49:22.535Z,10.27
2023-02-17T15:51:49.667Z,10.24
2023-02-17T15:54:19.308Z,10.21
2023-02-17T15:56:49.413Z,10.20
2023-02-17T15:59:23.596Z,10.25
2023-02-17T16:01:56.104Z,10.27
2023-02-17T16:04:22.899Z,10.26
2023-02-17T16:06:49.996Z,10.25
2023-02-17T16:09:16.789Z,10.25
2023-02-17T16:11:47.657Z,10.28
2023-02-17T16:14:23.061Z,10.25
2023-02-17T16:16:50.167Z,10.25
2023-02-17T16:19:16.926Z,10.25
2023-02-17T16:21:43.962Z,10.25
2023-02-17T16:24:10.762Z,10.28
2023-02-17T16:26:37.934Z,10.30
2023-02-17T16:29:13.081Z,10.28
2023-02-17T16:31:40.328Z,10.23
2023-02-17T16:34:07.165Z,10.25
2023-02-17T16:36:34.737Z,10.24
2023-02-17T16:39:04.053Z,10.28
2023-02-17T16:41:31.128Z,10.29
2023-02-17T16:43:57.994Z,10.29
2023-02-17T16:46:29.752Z,10.28
2023-02-17T16:48:57.282Z,10.28
2023-02-17T16:51:24.405Z,10.31
2023-02-17T16:53:51.207Z,10.32
2023-02-17T16:56:21.851Z,10.33
2023-02-17T16:58:48.629Z,10.31
2023-02-17T17:01:15.848Z,10.32
2023-02-17T17:03:42.997Z,10.33
2023-02-17T17:06:20.625Z,10.37
2023-02-17T17:08:47.552Z,10.36
2023-02-17T17:11:16.034Z,10.35
2023-02-17T17:13:44.126Z,10.30
2023-02-17T17:16:16.159Z,10.32
2023-02-17T17:18:43.254Z,10.35
2023-02-17T17:21:14.664Z,10.35
2023-02-17T17:23:41.541Z,10.34
2023-02-17T17:26:25.177Z,10.40
2023-02-17T17:28:52.050Z,10.42
2023-02-17T17:31:20.230Z,10.43
2023-02-17T17:33:47.960Z,10.43
2023-02-17T17:36:18.123Z,10.44
2023-02-17T17:38:45.119Z,10.46
2023-02-17T17:41:12.605Z,10.47
2023-02-17T17:43:39.402Z,10.49
2023-02-17T17:46:12.104Z,10.47
2023-02-17T17:48:38.911Z,10.47
2023-02-17T17:51:06.171Z,10.48
2023-02-17T17:53:33.063Z,10.53
2023-02-17T17:56:00.192Z,10.49
2023-02-17T17:58:27.016Z,10.49
2023-02-17T18:00:54.632Z,10.55
2023-02-17T18:03:21.489Z,10.50
2023-02-17T18:05:48.557Z,10.57
2023-02-17T18:08:17.535Z,10.57
2023-02-17T18:10:44.638Z,10.61
2023-02-17T18:13:11.519Z,10.56
2023-02-17T18:15:39.436Z,10.55
2023-02-17T18:18:06.219Z,10.62
2023-02-17T18:20:33.368Z,10.64
2023-02-17T18:23:00.167Z,10.62
2023-02-17T18:25:27.296Z,10.66
2023-02-17T18:27:55.832Z,10.63
2023-02-17T18:30:27.240Z,10.64
2023-02-17T18:32:54.214Z,10.67
2023-02-17T18:35:21.414Z,10.69
2023-02-17T18:37:48.382Z,10.66
2023-02-17T18:40:16.959Z,10.70
2023-02-17T18:42:47.630Z,10.64
2023-02-17T18:45:15.752Z,10.68
2023-02-17T18:47:43.079Z,10.66
2023-02-17T18:50:11.435Z,10.71
2023-02-17T18:52:38.930Z,10.73
2023-02-17T18:55:06.399Z,10.74
2023-02-17T18:57:33.421Z,10.75
2023-02-17T19:00:00.764Z,10.74
2023-02-17T19:02:27.598Z,10.80
2023-02-17T19:04:55.245Z,10.79
2023-02-17T19:07:22.372Z,10.80
2023-02-17T19:09:53.595Z,10.79
2023-02-17T19:12:20.637Z,10.82
2023-02-17T19:14:53.122Z,10.85
2023-02-17T19:17:20.010Z,10.85
2023-02-17T19:19:47.074Z,10.86
2023-02-17T19:22:13.890Z,10.86
2023-02-17T19:24:42.100Z,10.89
2023-02-17T19:27:09.084Z,10.89
2023-02-17T19:29:36.182Z,10.90
2023-02-17T19:32:03.408Z,10.95
2023-02-17T19:34:31.316Z,10.97
2023-02-17T19:36:58.408Z,10.95
2023-02-17T19:39:25.583Z,10.96
2023-02-17T19:41:52.441Z,11.02
2023-02-17T19:44:20.119Z,11.00
2023-02-17T19:46:47.131Z,11.02
2023-02-17T19:49:14.326Z,10.99
2023-02-17T19:51:41.101Z,11.00
2023-02-17T19:54:08.368Z,10.98
2023-02-17T19:56:36.412Z,11.05
2023-02-17T19:59:03.517Z,11.05
2023-02-17T20:01:32.086Z,11.05
2023-02-17T20:03:59.580Z,11.07
2023-02-17T20:06:28.662Z,11.11
2023-02-17T20:09:06.672Z,11.13
2023-02-17T20:11:33.510Z,11.17
2023-02-17T20:14:01.043Z,11.15
2023-02-17T20:16:28.225Z,11.18
2023-02-17T20:18:55.718Z,11.20
2023-02-17T20:21:24.453Z,11.19
2023-02-17T20:23:51.996Z,11.23
2023-02-17T20:26:21.960Z,11.26
2023-02-17T20:28:49.487Z,11.30
2023-02-17T20:31:16.388Z,11.24
2023-02-17T20:33:43.587Z,11.21
2023-02-17T20:36:11.747Z,11.27
2023-02-17T20:38:39.638Z,11.25
2023-02-17T20:41:10.153Z,11.30
2023-02-17T20:43:37.748Z,11.34
2023-02-17T20:46:05.414Z,11.34
2023-02-17T20:48:33.044Z,11.31
2023-02-17T20:50:59.888Z,11.36
2023-02-17T20:53:27.086Z,11.38
2023-02-17T20:55:53.922Z,11.41
2023-02-17T20:58:21.023Z,11.41
2023-02-17T21:00:48.488Z,11.46
2023-02-17T21:03:15.703Z,11.48
2023-02-17T21:05:42.624Z,11.46
2023-02-17T21:08:09.940Z,11.48
2023-02-17T21:10:36.929Z,11.49
2023-02-17T21:13:04.017Z,11.52
2023-02-17T21:15:30.817Z,11.52
2023-02-17T21:17:57.920Z,11.51
2023-02-17T21:20:24.663Z,11.54
2023-02-17T21:22:51.789Z,11.56
2023-02-17T21:25:18.728Z,11.58
2023-02-17T21:27:45.812Z,11.58
2023-02-17T21:30:13.153Z,11.58
2023-02-17T21:32:40.446Z,11.61
2023-02-17T21:35:09.376Z,11.63
2023-02-17T21:37:38.861Z,11.66
2023-02-17T21:40:07.556Z,11.65
2023-02-17T21:42:55.838Z,11.66
2023-02-17T21:45:23.072Z,11.65
2023-02-17T21:47:50.286Z,11.68
2023-02-17T21:50:18.155Z,11.67
2023-02-17T21:52:45.268Z,11.70
2023-02-17T21:55:12.087Z,11.73
2023-02-17T21:57:39.176Z,11.72
2023-02-17T22:00:06.803Z,11.74
2023-02-17T22:02:35.948Z,11.75
2023-02-17T22:05:02.833Z,11.72
2023-02-17T22:07:29.965Z,11.77
2023-02-17T22:09:57.910Z,11.77
2023-02-17T22:12:24.932Z,11.77
2023-02-17T22:14:51.668Z,11.79
2023-02-17T22:17:18.825Z,11.80
2023-02-17T22:19:45.612Z,11.79
2023-02-17T22:22:12.687Z,11.80
2023-02-17T22:24:39.431Z,11.82
2023-02-17T22:27:06.571Z,11.82
2023-02-17T22:29:33.287Z,11.82
2023-02-17T22:32:00.421Z,11.81
2023-02-17T22:34:28.765Z,11.85
2023-02-17T22:36:55.959Z,11.86
2023-02-17T22:39:22.788Z,11.89
2023-02-17T22:41:49.877Z,11.85
2023-02-17T22:44:16.671Z,11.89
2023-02-17T22:46:43.787Z,11.85
2023-02-17T22:49:10.561Z,11.88
2023-02-17T22:51:39.097Z,11.89
2023-02-17T22:54:06.397Z,11.85
2023-02-17T22:56:33.455Z,11.89
2023-02-17T22:59:04.383Z,11.87
2023-02-17T23:01:33.201Z,11.94
2023-02-17T23:04:00.048Z,11.92
2023-02-17T23:06:29.589Z,11.94
2023-02-17T23:08:56.448Z,11.93
2023-02-17T23:11:44.788Z,11.95
2023-02-17T23:14:12.110Z,11.93
2023-02-17T23:16:39.333Z,11.94
2023-02-17T23:19:10.450Z,11.95
2023-02-17T23:21:37.628Z,11.95
2023-02-17T23:24:04.614Z,11.98
2023-02-17T23:26:31.780Z,11.98
2023-02-17T23:28:58.654Z,11.99
2023-02-17T23:31:25.955Z,11.98
2023-02-17T23:33:52.747Z,11.99
2023-02-17T23:36:19.885Z,12.00
2023-02-17T23:38:46.691Z,11.99
2023-02-17T23:41:13.823Z,11.99
2023-02-17T23:43:41.320Z,11.97
2023-02-17T23:46:08.634Z,11.98
2023-02-17T23:48:35.779Z,12.00
2023-02-17T23:51:04.277Z,12.02
2023-02-17T23:53:31.310Z,12.02
2023-02-17T23:56:09.049Z,12.03
2023-02-17T23:58:36.082Z,12.02
